createdAt,value
2023-03-31T00:00:53.650Z,-2.50
2023-03-31T00:03:24.374Z,-2.50
2023-03-31T00:05:59.825Z,-2.50
2023-03-31T00:08:30.773Z,-2.60
2023-03-31T00:11:01.508Z,-2.60
2023-03-31T00:13:29.836Z,-2.60
2023-03-31T00:16:02.379Z,-2.60
2023-03-31T00:18:30.991Z,-2.70
2023-03-31T00:21:09.608Z,-2.60
2023-03-31T00:23:36.766Z,-2.50
2023-03-31T00:26:05.197Z,-2.60
2023-03-31T00:28:32.847Z,-2.50
2023-03-31T00:31:03.886Z,-2.50
2023-03-31T00:33:31.471Z,-2.50
2023-03-31T00:36:02.199Z,-2.50
2023-03-31T00:38:30.556Z,-2.40
2023-03-31T00:40:58.101Z,-2.40
2023-03-31T00:43:29.570Z,-2.40
2023-03-31T00:46:15.790Z,-2.40
2023-03-31T00:48:51.877Z,-2.30
2023-03-31T00:51:22.428Z,-2.30
2023-03-31T00:53:59.969Z,-2.30
2023-03-31T00:56:32.820Z,-2.40
2023-03-31T00:59:04.034Z,-2.30
2023-03-31T01:01:31.994Z,-2.40
2023-03-31T01:03:59.507Z,-2.40
2023-03-31T01:06:31.095Z,-2.40
2023-03-31T01:08:58.425Z,-2.40
2023-03-31T01:11:28.056Z,-2.30
2023-03-31T01:13:56.820Z,-2.40
2023-03-31T01:16:24.169Z,-2.50
2023-03-31T01:18:51.735Z,-2.50
2023-03-31T01:21:30.824Z,-2.40
2023-03-31T01:24:16.148Z,-2.40
2023-03-31T01:27:22.261Z,-2.40
2023-03-31T01:30:07.452Z,-2.50
2023-03-31T01:32:56.993Z,-2.50
2023-03-31T01:36:03.710Z,-2.50
2023-03-31T01:39:01.303Z,-2.40
2023-03-31T01:41:58.456Z,-2.40
2023-03-31T01:45:08.243Z,-2.40
2023-03-31T01:47:46.816Z,-2.40
2023-03-31T01:50:36.319Z,-2.60
2023-03-31T01:53:42.273Z,-2.60
2023-03-31T01:56:31.413Z,-2.50
2023-03-31T01:59:15.898Z,-2.50
2023-03-31T02:02:03.120Z,-2.60
2023-03-31T02:04:59.481Z,-2.50
2023-03-31T02:07:39.946Z,-2.50
2023-03-31T02:10:10.929Z,-2.50
2023-03-31T02:12:41.095Z,-2.60
2023-03-31T02:15:11.797Z,-2.50
2023-03-31T02:17:42.497Z,-2.50
2023-03-31T02:20:13.284Z,-2.60
2023-03-31T02:22:46.471Z,-2.60
2023-03-31T02:25:19.401Z,-2.50
2023-03-31T02:27:53.501Z,-2.50
2023-03-31T02:30:21.063Z,-2.60
2023-03-31T02:32:48.314Z,-2.60
2023-03-31T02:35:21.718Z,-2.60
2023-03-31T02:37:50.056Z,-2.60
2023-03-31T02:40:22.772Z,-2.60
2023-03-31T02:42:49.951Z,-2.60
2023-03-31T02:45:35.653Z,-2.60
2023-03-31T02:48:03.192Z,-2.70
2023-03-31T02:50:35.413Z,-2.80
2023-03-31T02:53:22.738Z,-2.80
2023-03-31T02:56:12.998Z,-2.70
2023-03-31T02:59:07.061Z,-2.70
2023-03-31T03:02:09.135Z,-2.60
2023-03-31T03:04:52.335Z,-2.70
2023-03-31T03:07:38.637Z,-2.90
2023-03-31T03:10:28.389Z,-2.90
2023-03-31T03:12:58.905Z,-2.90
2023-03-31T03:15:40.377Z,-2.90
2023-03-31T03:18:08.028Z,-3.00
2023-03-31T03:20:36.067Z,-3.00
2023-03-31T03:23:03.409Z,-3.10
2023-03-31T03:25:32.946Z,-3.20
2023-03-31T03:28:00.475Z,-3.20
2023-03-31T03:30:27.625Z,-3.20
2023-03-31T03:32:56.359Z,-3.30
2023-03-31T03:35:23.487Z,-3.30
2023-03-31T03:37:50.875Z,-3.30
2023-03-31T03:40:18.576Z,-3.40
2023-03-31T03:42:45.741Z,-3.40
2023-03-31T03:45:13.073Z,-3.50
2023-03-31T03:47:40.391Z,-3.50
2023-03-31T03:50:08.315Z,-3.60
2023-03-31T03:52:35.712Z,-3.70
2023-03-31T03:55:03.181Z,-3.80
2023-03-31T03:57:30.417Z,-3.90
2023-03-31T03:59:57.699Z,-3.90
2023-03-31T04:02:27.579Z,-3.80
2023-03-31T04:04:55.365Z,-3.90
2023-03-31T04:07:22.666Z,-4.00
2023-03-31T04:09:49.850Z,-4.00
2023-03-31T04:12:17.072Z,-3.90
2023-03-31T04:14:47.335Z,-3.90
2023-03-31T04:17:16.099Z,-4.00
2023-03-31T04:19:43.234Z,-4.10
2023-03-31T04:22:11.881Z,-4.10
2023-03-31T04:24:39.048Z,-4.10
2023-03-31T04:27:07.590Z,-4.10
2023-03-31T04:29:37.318Z,-4.10
2023-03-31T04:32:04.787Z,-4.00
2023-03-31T04:34:37.803Z,-4.00
2023-03-31T04:37:05.074Z,-4.00
2023-03-31T04:39:32.184Z,-4.00
2023-03-31T04:42:00.677Z,-4.00
2023-03-31T04:44:27.873Z,-4.00
2023-03-31T04:46:55.582Z,-4.00
2023-03-31T04:49:22.926Z,-3.90
2023-03-31T04:51:50.603Z,-3.90
2023-03-31T04:54:17.863Z,-3.70
2023-03-31T04:56:45.250Z,-3.70
2023-03-31T04:59:12.423Z,-3.70
2023-03-31T05:01:39.632Z,-3.70
2023-03-31T05:04:07.144Z,-3.70
2023-03-31T05:06:34.456Z,-3.60
2023-03-31T05:09:01.625Z,-3.50
2023-03-31T05:11:29.316Z,-3.40
2023-03-31T05:13:56.786Z,-3.20
2023-03-31T05:16:23.948Z,-3.20
2023-03-31T05:18:51.150Z,-3.00
2023-03-31T05:21:21.090Z,-3.20
2023-03-31T05:23:49.206Z,-3.10
2023-03-31T05:26:19.326Z,-3.10
2023-03-31T05:28:46.796Z,-3.00
2023-03-31T05:31:14.473Z,-2.80
2023-03-31T05:33:42.350Z,-2.80
2023-03-31T05:36:15.587Z,-2.80
2023-03-31T05:38:43.705Z,-2.70
2023-03-31T05:41:12.039Z,-2.50
2023-03-31T05:43:39.948Z,-2.60
2023-03-31T05:46:10.239Z,-2.40
2023-03-31T05:48:38.184Z,-2.50
2023-03-31T05:51:05.814Z,-2.30
2023-03-31T05:53:33.877Z,-2.10
2023-03-31T05:56:03.261Z,-2.00
2023-03-31T05:58:31.293Z,-2.00
2023-03-31T06:01:06.096Z,-1.60
2023-03-31T06:03:35.106Z,-1.90
2023-03-31T06:06:03.012Z,-1.60
2023-03-31T06:08:30.298Z,-1.50
2023-03-31T06:10:58.078Z,-1.30
2023-03-31T06:13:25.419Z,-1.50
2023-03-31T06:16:00.580Z,-1.30
2023-03-31T06:18:29.429Z,-0.70
2023-03-31T06:20:57.521Z,-0.50
2023-03-31T06:23:25.847Z,0.00
2023-03-31T06:25:54.773Z,0.30
2023-03-31T06:28:22.286Z,0.00
2023-03-31T06:30:49.467Z,0.10
2023-03-31T06:33:16.761Z,0.20
2023-03-31T06:35:43.928Z,-0.20
2023-03-31T06:38:11.333Z,0.00
2023-03-31T06:40:38.572Z,0.30
2023-03-31T06:43:06.062Z,0.50
2023-03-31T06:45:33.274Z,0.40
2023-03-31T06:48:00.435Z,0.50
2023-03-31T06:50:27.755Z,1.10
2023-03-31T06:52:55.532Z,1.40
2023-03-31T06:55:22.674Z,1.20
2023-03-31T06:57:50.038Z,0.90
2023-03-31T07:00:19.095Z,0.20
2023-03-31T07:02:47.508Z,0.00
2023-03-31T07:05:14.800Z,0.50
2023-03-31T07:07:43.325Z,0.70
2023-03-31T07:10:12.285Z,0.70
2023-03-31T07:12:39.428Z,1.30
2023-03-31T07:15:07.347Z,1.60
2023-03-31T07:17:34.722Z,1.70
2023-03-31T07:20:01.959Z,1.30
2023-03-31T07:22:29.189Z,1.30
2023-03-31T07:24:56.830Z,1.40
2023-03-31T07:27:26.237Z,1.50
2023-03-31T07:29:53.602Z,1.70
2023-03-31T07:32:22.427Z,1.90
2023-03-31T07:34:49.679Z,1.50
2023-03-31T07:37:16.885Z,1.60
2023-03-31T07:39:44.180Z,1.70
2023-03-31T07:42:11.344Z,2.10
2023-03-31T07:44:40.772Z,2.30
2023-03-31T07:47:08.165Z,4.50
2023-03-31T07:49:36.381Z,6.60
2023-03-31T07:52:03.746Z,8.00
2023-03-31T07:54:30.902Z,9.50
2023-03-31T07:57:01.849Z,10.30
2023-03-31T07:59:30.529Z,12.10
2023-03-31T08:01:57.707Z,9.90
2023-03-31T08:04:25.371Z,10.00
2023-03-31T08:06:52.724Z,9.00
2023-03-31T08:09:22.052Z,8.40
2023-03-31T08:11:49.519Z,7.40
2023-03-31T08:14:21.933Z,7.00
2023-03-31T08:16:55.546Z,6.80
2023-03-31T08:19:22.775Z,6.10
2023-03-31T08:21:51.620Z,4.70
2023-03-31T08:24:19.430Z,3.80
2023-03-31T08:26:46.939Z,3.20
2023-03-31T08:29:14.444Z,3.00
2023-03-31T08:31:41.869Z,3.10
2023-03-31T08:34:09.065Z,2.70
2023-03-31T08:36:36.328Z,2.30
2023-03-31T08:39:04.846Z,2.50
2023-03-31T08:41:44.088Z,3.40
2023-03-31T08:44:37.426Z,5.80
2023-03-31T08:47:07.795Z,7.20
2023-03-31T08:49:54.478Z,8.20
2023-03-31T08:52:31.774Z,10.30
2023-03-31T08:55:06.853Z,12.10
2023-03-31T08:58:04.196Z,13.30
2023-03-31T09:00:41.368Z,13.80
2023-03-31T09:03:34.581Z,15.40
2023-03-31T09:06:14.073Z,16.70
2023-03-31T09:08:45.002Z,13.80
2023-03-31T09:11:35.273Z,13.10
2023-03-31T09:14:32.559Z,12.60
2023-03-31T09:17:25.670Z,12.00
2023-03-31T09:20:10.114Z,11.30
2023-03-31T09:22:44.218Z,10.00
2023-03-31T09:25:34.354Z,9.00
2023-03-31T09:28:04.905Z,7.40
2023-03-31T09:30:37.036Z,7.10
2023-03-31T09:33:32.220Z,6.20
2023-03-31T09:36:00.540Z,5.40
2023-03-31T09:38:29.903Z,5.30
2023-03-31T09:41:02.704Z,5.00
2023-03-31T09:43:35.253Z,5.50
2023-03-31T09:46:09.602Z,6.20
2023-03-31T09:48:39.214Z,7.20
2023-03-31T09:51:14.721Z,6.00
2023-03-31T09:53:53.520Z,6.40
2023-03-31T09:56:44.476Z,6.50
2023-03-31T09:59:37.647Z,6.60
2023-03-31T10:02:35.764Z,7.00
2023-03-31T10:05:05.384Z,6.10
2023-03-31T10:07:34.137Z,6.10
2023-03-31T10:10:02.352Z,6.30
2023-03-31T10:12:32.060Z,6.20
2023-03-31T10:15:23.037Z,6.00
2023-03-31T10:20:37.810Z,5.00
2023-03-31T10:23:28.706Z,5.80
2023-03-31T10:25:56.240Z,6.30
2023-03-31T10:28:23.839Z,7.30
2023-03-31T10:31:04.560Z,6.70
2023-03-31T10:33:35.039Z,7.10
2023-03-31T10:36:15.839Z,6.90
2023-03-31T10:38:46.175Z,6.70
2023-03-31T10:41:26.353Z,5.10
2023-03-31T10:43:56.410Z,5.20
2023-03-31T10:46:44.224Z,5.20
2023-03-31T10:49:29.537Z,5.60
2023-03-31T10:51:59.658Z,4.30
2023-03-31T10:54:26.980Z,5.00
2023-03-31T10:57:01.744Z,4.20
2023-03-31T10:59:37.741Z,4.10
2023-03-31T11:02:21.770Z,4.20
2023-03-31T11:05:22.738Z,4.40
2023-03-31T11:08:20.081Z,4.50
2023-03-31T11:11:27.867Z,4.30
2023-03-31T11:14:15.339Z,4.20
2023-03-31T11:16:59.701Z,4.80
2023-03-31T11:19:38.870Z,4.60
2023-03-31T11:22:19.338Z,4.30
2023-03-31T11:25:01.377Z,4.50
2023-03-31T11:27:57.666Z,5.00
2023-03-31T11:30:48.047Z,4.60
2023-03-31T11:33:40.176Z,4.50
2023-03-31T11:36:37.013Z,4.20
2023-03-31T11:39:10.457Z,3.60
2023-03-31T11:41:43.894Z,3.60
2023-03-31T11:44:16.694Z,3.90
2023-03-31T11:46:54.656Z,3.50
2023-03-31T11:49:27.574Z,3.30
2023-03-31T11:52:01.402Z,2.90
2023-03-31T11:54:53.131Z,3.30
2023-03-31T11:57:24.285Z,3.00
2023-03-31T11:59:59.768Z,2.90
2023-03-31T12:02:48.711Z,3.20
2023-03-31T12:05:17.223Z,2.70
2023-03-31T12:08:01.713Z,3.10
2023-03-31T12:10:37.340Z,3.50
2023-03-31T12:13:33.420Z,3.30
2023-03-31T12:16:07.123Z,3.50
2023-03-31T12:19:02.601Z,3.60
2023-03-31T12:21:31.623Z,3.40
2023-03-31T12:23:58.781Z,3.40
2023-03-31T12:26:48.486Z,3.10
2023-03-31T12:29:59.332Z,3.30
2023-03-31T12:32:34.103Z,3.30
2023-03-31T12:35:14.830Z,3.30
2023-03-31T12:37:58.964Z,3.20
2023-03-31T12:40:43.270Z,3.20
2023-03-31T12:43:21.452Z,3.30
2023-03-31T12:46:06.694Z,3.40
2023-03-31T12:48:54.880Z,3.10
2023-03-31T12:51:31.688Z,3.00
2023-03-31T12:54:17.597Z,3.20
2023-03-31T12:57:11.323Z,3.10
2023-03-31T12:59:41.749Z,3.20
2023-03-31T13:02:17.842Z,3.30
2023-03-31T13:04:45.211Z,3.30
2023-03-31T13:07:28.302Z,3.10
2023-03-31T13:09:58.154Z,3.20
2023-03-31T13:12:28.363Z,3.10
2023-03-31T13:15:00.406Z,3.20
2023-03-31T13:17:27.858Z,3.20
2023-03-31T13:19:56.828Z,3.00
2023-03-31T13:22:38.189Z,2.80
2023-03-31T13:25:30.261Z,2.90
2023-03-31T13:28:04.232Z,2.90
2023-03-31T13:30:37.422Z,2.70
2023-03-31T13:33:18.361Z,2.80
2023-03-31T13:35:54.412Z,3.00
2023-03-31T13:38:54.851Z,2.60
2023-03-31T13:41:34.451Z,2.70
2023-03-31T13:44:38.593Z,2.60
2023-03-31T13:47:23.973Z,2.80
2023-03-31T13:50:12.490Z,2.90
2023-03-31T13:53:12.398Z,2.60
2023-03-31T13:56:19.922Z,2.50
2023-03-31T13:58:47.310Z,2.50
2023-03-31T14:01:29.203Z,2.10
2023-03-31T14:04:16.565Z,2.00
2023-03-31T14:06:58.295Z,2.20
2023-03-31T14:09:47.132Z,2.10
2023-03-31T14:12:34.769Z,2.00
2023-03-31T14:15:05.986Z,1.90
2023-03-31T14:17:41.407Z,2.20
2023-03-31T14:20:35.426Z,2.10
2023-03-31T14:23:14.557Z,2.20
2023-03-31T14:26:14.617Z,2.00
2023-03-31T14:29:01.365Z,2.00
2023-03-31T14:31:35.801Z,2.30
2023-03-31T14:34:40.158Z,2.20
2023-03-31T14:37:13.803Z,2.30
2023-03-31T14:39:54.871Z,2.10
2023-03-31T14:42:27.155Z,2.10
2023-03-31T14:45:01.912Z,2.10
2023-03-31T14:47:29.614Z,2.10
2023-03-31T14:50:03.601Z,1.90
2023-03-31T14:52:34.047Z,1.60
2023-03-31T14:55:01.483Z,1.80
2023-03-31T14:57:34.514Z,1.90
2023-03-31T15:00:08.518Z,1.80
2023-03-31T15:02:40.891Z,1.60
2023-03-31T15:05:15.027Z,1.60
2023-03-31T15:07:42.286Z,1.50
2023-03-31T15:10:20.140Z,1.70
2023-03-31T15:12:48.769Z,1.70
2023-03-31T15:15:17.682Z,1.70
2023-03-31T15:17:48.264Z,1.50
2023-03-31T15:20:29.578Z,1.30
2023-03-31T15:22:58.291Z,1.40
2023-03-31T15:25:34.880Z,1.50
2023-03-31T15:28:12.223Z,1.40
2023-03-31T15:30:40.574Z,1.40
2023-03-31T15:33:19.743Z,1.40
2023-03-31T15:35:48.748Z,1.50
2023-03-31T15:38:18.721Z,1.60
2023-03-31T15:40:53.169Z,1.50
2023-03-31T15:43:54.078Z,1.40
2023-03-31T15:46:46.232Z,1.20
2023-03-31T15:49:26.144Z,1.10
2023-03-31T15:51:57.187Z,1.20
2023-03-31T15:54:34.725Z,1.20
2023-03-31T15:57:07.296Z,1.20
2023-03-31T15:59:55.944Z,1.10
2023-03-31T16:02:27.727Z,0.90
2023-03-31T16:04:59.699Z,0.60
2023-03-31T16:07:32.074Z,0.40
2023-03-31T16:10:02.520Z,0.50
2023-03-31T16:13:03.635Z,0.50
2023-03-31T16:15:41.061Z,0.50
2023-03-31T16:18:26.373Z,0.40
2023-03-31T16:21:02.019Z,0.50
2023-03-31T16:23:33.626Z,0.40
2023-03-31T16:26:02.289Z,0.30
2023-03-31T16:28:34.161Z,0.20
2023-03-31T16:31:02.169Z,0.20
2023-03-31T16:33:31.758Z,0.10
2023-03-31T16:36:02.616Z,0.00
2023-03-31T16:38:30.470Z,-0.20
2023-03-31T16:40:58.815Z,-0.30
2023-03-31T16:43:28.787Z,-0.20
2023-03-31T16:45:58.928Z,-0.40
2023-03-31T16:48:28.867Z,-0.40
2023-03-31T16:50:58.102Z,-0.50
2023-03-31T16:53:28.444Z,-0.60
2023-03-31T16:55:57.161Z,-0.70
2023-03-31T16:58:25.382Z,-1.00
2023-03-31T17:00:53.593Z,-1.10
2023-03-31T17:03:22.141Z,-1.20
2023-03-31T17:05:53.216Z,-1.30
2023-03-31T17:08:22.490Z,-1.50
2023-03-31T17:11:09.275Z,-1.50
2023-03-31T17:13:37.820Z,-1.60
2023-03-31T17:16:18.623Z,-1.70
2023-03-31T17:18:51.553Z,-1.90
2023-03-31T17:21:22.067Z,-2.00
2023-03-31T17:23:49.916Z,-2.00
2023-03-31T17:26:18.283Z,-2.10
2023-03-31T17:28:46.546Z,-2.20
2023-03-31T17:31:19.648Z,-2.20
2023-03-31T17:33:47.594Z,-2.40
2023-03-31T17:36:15.752Z,-2.50
2023-03-31T17:38:43.818Z,-2.60
2023-03-31T17:41:13.118Z,-2.70
2023-03-31T17:43:40.661Z,-2.90
2023-03-31T17:46:13.262Z,-3.00
2023-03-31T17:48:41.721Z,-3.10
2023-03-31T17:51:14.072Z,-3.10
2023-03-31T17:53:43.354Z,-3.30
2023-03-31T17:56:11.093Z,-3.40
2023-03-31T17:58:38.557Z,-3.50
2023-03-31T18:01:07.946Z,-3.50
2023-03-31T18:03:36.461Z,-3.60
2023-03-31T18:06:08.431Z,-3.70
2023-03-31T18:08:36.569Z,-3.80
2023-03-31T18:11:06.999Z,-3.80
2023-03-31T18:13:36.594Z,-3.90
2023-03-31T18:16:05.597Z,-4.00
2023-03-31T18:18:33.704Z,-4.00
2023-03-31T18:21:07.092Z,-4.00
2023-03-31T18:23:38.633Z,-4.10
2023-03-31T18:26:07.499Z,-4.20
2023-03-31T18:28:35.284Z,-4.20
2023-03-31T18:31:05.782Z,-4.30
2023-03-31T18:33:36.264Z,-4.40
2023-03-31T18:36:04.165Z,-4.40
2023-03-31T18:38:34.920Z,-4.50
2023-03-31T18:41:04.883Z,-4.60
2023-03-31T18:43:33.555Z,-4.60
2023-03-31T18:46:05.111Z,-4.70
2023-03-31T18:48:39.536Z,-4.80
2023-03-31T18:51:10.686Z,-4.90
2023-03-31T18:53:39.410Z,-4.90
2023-03-31T18:56:08.324Z,-5.00
2023-03-31T18:58:38.502Z,-5.00
2023-03-31T19:01:06.486Z,-5.10
2023-03-31T19:03:34.354Z,-5.10
2023-03-31T19:06:04.789Z,-5.10
2023-03-31T19:08:32.826Z,-5.20
2023-03-31T19:11:17.200Z,-5.20
2023-03-31T19:13:45.300Z,-5.30
2023-03-31T19:16:15.775Z,-5.40
2023-03-31T19:18:46.220Z,-5.50
2023-03-31T19:21:14.759Z,-5.50
2023-03-31T19:23:42.219Z,-5.60
2023-03-31T19:26:14.582Z,-5.60
2023-03-31T19:28:43.373Z,-5.70
2023-03-31T19:31:13.018Z,-5.70
2023-03-31T19:33:41.777Z,-5.70
2023-03-31T19:36:10.638Z,-5.80
2023-03-31T19:38:38.235Z,-5.80
2023-03-31T19:41:07.111Z,-5.90
2023-03-31T19:43:35.230Z,-5.90
2023-03-31T19:46:04.149Z,-6.00
2023-03-31T19:48:34.259Z,-6.10
2023-03-31T19:51:06.429Z,-6.10
2023-03-31T19:53:36.883Z,-6.20
2023-03-31T19:56:11.512Z,-6.30
2023-03-31T19:58:41.738Z,-6.30
2023-03-31T20:01:19.372Z,-6.30
2023-03-31T20:03:47.889Z,-6.40
2023-03-31T20:06:15.956Z,-6.40
2023-03-31T20:08:44.337Z,-6.50
2023-03-31T20:11:14.532Z,-6.50
2023-03-31T20:13:43.973Z,-6.60
2023-03-31T20:16:14.830Z,-6.60
2023-03-31T20:18:43.850Z,-6.70
2023-03-31T20:21:14.811Z,-6.70
2023-03-31T20:23:44.047Z,-6.70
2023-03-31T20:26:13.890Z,-6.80
2023-03-31T20:28:41.208Z,-6.80
2023-03-31T20:31:14.646Z,-6.80
2023-03-31T20:33:43.427Z,-6.80
2023-03-31T20:36:18.293Z,-6.90
2023-03-31T20:38:47.726Z,-6.90
2023-03-31T20:41:16.099Z,-7.00
2023-03-31T20:43:43.544Z,-7.00
2023-03-31T20:46:11.792Z,-7.10
2023-03-31T20:48:40.638Z,-7.10
2023-03-31T20:51:11.177Z,-7.10
2023-03-31T20:53:44.760Z,-7.20
2023-03-31T20:56:14.483Z,-7.20
2023-03-31T20:58:44.279Z,-7.30
2023-03-31T21:01:12.807Z,-7.30
2023-03-31T21:03:40.522Z,-7.30
2023-03-31T21:06:11.322Z,-7.30
2023-03-31T21:08:39.625Z,-7.30
2023-03-31T21:11:07.421Z,-7.30
2023-03-31T21:13:34.971Z,-7.30
2023-03-31T21:16:04.623Z,-7.30
2023-03-31T21:18:34.189Z,-7.40
2023-03-31T21:21:04.341Z,-7.40
2023-03-31T21:23:31.626Z,-7.40
2023-03-31T21:26:01.274Z,-7.50
2023-03-31T21:28:34.058Z,-7.50
2023-03-31T21:31:25.579Z,-7.60
2023-03-31T21:33:53.718Z,-7.50
2023-03-31T21:36:23.155Z,-7.60
2023-03-31T21:38:52.901Z,-7.60
2023-03-31T21:41:26.132Z,-7.60
2023-03-31T21:43:54.566Z,-7.60
2023-03-31T21:46:26.155Z,-7.60
2023-03-31T21:48:54.076Z,-7.60
2023-03-31T21:51:22.424Z,-7.70
2023-03-31T21:53:51.531Z,-7.70
2023-03-31T21:56:18.971Z,-7.70
2023-03-31T21:58:46.486Z,-7.70
2023-03-31T22:01:14.257Z,-7.70
2023-03-31T22:03:42.548Z,-7.70
2023-03-31T22:06:10.484Z,-7.70
2023-03-31T22:08:39.064Z,-7.70
2023-03-31T22:11:08.765Z,-7.70
2023-03-31T22:13:36.895Z,-7.80
2023-03-31T22:16:05.589Z,-7.80
2023-03-31T22:18:33.069Z,-7.90
2023-03-31T22:21:02.550Z,-7.90
2023-03-31T22:23:29.829Z,-7.90
2023-03-31T22:25:57.043Z,-8.00
2023-03-31T22:28:24.316Z,-8.00
2023-03-31T22:30:51.419Z,-8.10
2023-03-31T22:33:18.695Z,-8.10
2023-03-31T22:35:45.881Z,-8.10
2023-03-31T22:38:15.529Z,-8.00
2023-03-31T22:40:42.856Z,-8.10
2023-03-31T22:43:10.277Z,-8.10
2023-03-31T22:45:40.418Z,-8.20
2023-03-31T22:48:09.913Z,-8.30
2023-03-31T22:50:37.396Z,-8.40
2023-03-31T22:53:04.980Z,-8.40
2023-03-31T22:55:32.227Z,-8.40
2023-03-31T22:57:59.637Z,-8.40
2023-03-31T23:00:27.326Z,-8.40
2023-03-31T23:02:54.845Z,-8.40
2023-03-31T23:05:24.428Z,-8.50
2023-03-31T23:07:51.924Z,-8.50
2023-03-31T23:10:19.477Z,-8.60
2023-03-31T23:12:46.603Z,-8.60
2023-03-31T23:15:13.995Z,-8.70
2023-03-31T23:17:41.137Z,-8.70
2023-03-31T23:20:08.707Z,-8.70
2023-03-31T23:22:36.658Z,-8.80
2023-03-31T23:25:04.539Z,-8.80
2023-03-31T23:27:31.714Z,-8.80
2023-03-31T23:29:59.075Z,-8.90
2023-03-31T23:32:26.280Z,-8.90
2023-03-31T23:34:53.568Z,-8.90
2023-03-31T23:37:20.743Z,-8.90
2023-03-31T23:39:47.940Z,-8.90
2023-03-31T23:42:19.790Z,-8.90
2023-03-31T23:44:47.561Z,-8.90
2023-03-31T23:47:14.742Z,-9.00
2023-03-31T23:49:42.278Z,-9.00
2023-03-31T23:52:09.374Z,-9.00
2023-03-31T23:54:36.778Z,-9.00
2023-03-31T23:57:04.305Z,-9.00
2023-03-31T23:59:31.771Z,-9.00
